createdAt,value
2023-02-25T00:04:00.074Z,99182.28
2023-02-25T00:09:01.470Z,99173.25
2023-02-25T00:14:03.278Z,99186.91
2023-02-25T00:19:04.622Z,99200.59
2023-02-25T00:24:15.840Z,99204.84
2023-02-25T00:29:18.326Z,99202.72
2023-02-25T00:34:21.072Z,99204.28
2023-02-25T00:39:24.042Z,99208.53
2023-02-25T00:44:25.452Z,99213.50
2023-02-25T00:49:32.203Z,99207.50
2023-02-25T00:54:34.981Z,99203.44
2023-02-25T00:59:36.523Z,99201.53
2023-02-25T01:04:37.863Z,99225.94
2023-02-25T01:09:39.434Z,99205.47
2023-02-25T01:14:40.805Z,99215.00
2023-02-25T01:19:42.196Z,99210.31
2023-02-25T01:24:43.599Z,99221.81
2023-02-25T01:29:45.290Z,99207.97
2023-02-25T01:34:46.634Z,99205.50
2023-02-25T01:39:47.991Z,99209.84
2023-02-25T01:45:20.227Z,99201.63
2023-02-25T01:50:26.998Z,99203.66
2023-02-25T01:55:28.488Z,99222.06
2023-02-25T02:00:32.367Z,99225.81
2023-02-25T02:05:46.493Z,99226.59
2023-02-25T02:10:47.827Z,99223.06
2023-02-25T02:16:10.847Z,99223.63
2023-02-25T02:21:29.770Z,99225.88
2023-02-25T02:26:49.566Z,99215.50
2023-02-25T02:32:10.482Z,99218.84
2023-02-25T02:37:30.786Z,99222.66
2023-02-25T02:42:43.591Z,99213.50
2023-02-25T02:47:54.436Z,99224.25
2023-02-25T02:52:59.585Z,99212.72
2023-02-25T02:58:06.886Z,99213.19
2023-02-25T03:03:14.644Z,99226.53
2023-02-25T03:08:23.139Z,99221.28
2023-02-25T03:13:24.724Z,99229.28
2023-02-25T03:18:37.129Z,99237.94
2023-02-25T03:23:42.994Z,99237.59
2023-02-25T03:28:46.047Z,99236.19
2023-02-25T03:34:10.391Z,99249.53
2023-02-25T03:39:21.348Z,99236.66
2023-02-25T03:44:28.735Z,99239.50
2023-02-25T03:49:40.692Z,99245.16
2023-02-25T03:54:42.161Z,99263.53
2023-02-25T03:59:43.502Z,99255.53
2023-02-25T04:04:44.956Z,99263.28
2023-02-25T04:09:46.368Z,99257.78
2023-02-25T04:14:47.859Z,99253.41
2023-02-25T04:19:49.247Z,99257.66
2023-02-25T04:24:50.664Z,99263.19
2023-02-25T04:29:52.054Z,99265.03
2023-02-25T04:34:53.415Z,99249.06
2023-02-25T04:39:54.839Z,99242.59
2023-02-25T04:44:56.222Z,99255.50
2023-02-25T04:49:57.854Z,99253.72
2023-02-25T04:54:59.346Z,99266.44
2023-02-25T05:00:00.689Z,99272.78
2023-02-25T05:05:02.116Z,99267.28
2023-02-25T05:10:04.804Z,99257.63
2023-02-25T05:15:08.523Z,99252.81
2023-02-25T05:20:12.645Z,99250.03
2023-02-25T05:25:14.782Z,99260.88
2023-02-25T05:30:16.317Z,99276.72
2023-02-25T05:35:18.156Z,99263.69
2023-02-25T05:40:19.625Z,99253.81
2023-02-25T05:45:21.041Z,99260.69
2023-02-25T05:50:22.404Z,99252.22
2023-02-25T05:55:24.154Z,99254.53
2023-02-25T06:00:25.590Z,99254.03
2023-02-25T06:05:26.968Z,99261.22
2023-02-25T06:10:28.412Z,99259.56
2023-02-25T06:15:29.810Z,99258.38
2023-02-25T06:20:31.756Z,99273.72
2023-02-25T06:25:33.127Z,99276.88
2023-02-25T06:30:34.569Z,99267.91
2023-02-25T06:35:36.069Z,99274.72
2023-02-25T06:40:38.404Z,99268.38
2023-02-25T06:45:39.847Z,99275.69
2023-02-25T06:50:41.757Z,99280.69
2023-02-25T06:55:43.089Z,99299.69
2023-02-25T07:00:44.988Z,99291.69
2023-02-25T07:05:46.416Z,99294.69
2023-02-25T07:10:47.776Z,99302.53
2023-02-25T07:15:49.218Z,99293.16
2023-02-25T07:20:50.608Z,99299.16
2023-02-25T07:25:51.974Z,99305.63
2023-02-25T07:30:53.414Z,99311.44
2023-02-25T07:35:55.373Z,99314.47
2023-02-25T07:40:56.727Z,99313.28
2023-02-25T07:45:58.257Z,99323.59
2023-02-25T07:51:18.549Z,99322.88
2023-02-25T07:56:21.794Z,99336.72
2023-02-25T08:01:29.732Z,99344.84
2023-02-25T08:06:31.830Z,99344.16
2023-02-25T08:11:33.343Z,99335.84
2023-02-25T08:16:34.818Z,99331.59
2023-02-25T08:21:37.364Z,99341.03
2023-02-25T08:26:38.823Z,99340.34
2023-02-25T08:31:40.393Z,99342.06
2023-02-25T08:36:41.968Z,99346.66
2023-02-25T08:41:44.187Z,99342.63
2023-02-25T08:46:46.080Z,99351.84
2023-02-25T08:51:50.587Z,99346.38
2023-02-25T08:56:52.081Z,99336.69
2023-02-25T09:01:54.165Z,99348.19
2023-02-25T09:06:58.282Z,99347.13
2023-02-25T09:12:00.721Z,99359.34
2023-02-25T09:17:02.895Z,99358.69
2023-02-25T09:22:08.838Z,99358.59
2023-02-25T09:27:10.396Z,99358.28
2023-02-25T09:32:18.376Z,99363.03
2023-02-25T09:37:19.880Z,99353.09
2023-02-25T09:42:24.520Z,99344.50
2023-02-25T09:47:37.823Z,99351.28
2023-02-25T09:52:46.552Z,99342.22
2023-02-25T09:58:13.969Z,99346.53
2023-02-25T10:14:20.804Z,99368.00
2023-02-25T10:19:42.354Z,99369.06
2023-02-25T10:24:48.745Z,99362.41
2023-02-25T10:29:58.845Z,99358.00
2023-02-25T10:35:11.176Z,99372.13
2023-02-25T10:40:18.723Z,99360.59
2023-02-25T10:45:23.487Z,99388.09
2023-02-25T10:50:39.263Z,99401.66
2023-02-25T10:55:51.835Z,99386.31
2023-02-25T11:01:16.809Z,99394.47
2023-02-25T11:06:23.686Z,99398.78
2023-02-25T11:11:38.507Z,99388.53
2023-02-25T11:16:42.776Z,99399.47
2023-02-25T11:21:44.797Z,99420.25
2023-02-25T11:26:49.382Z,99455.44
2023-02-25T11:31:55.747Z,99450.00
2023-02-25T11:37:35.946Z,99441.56
2023-02-25T11:42:37.659Z,99425.22
2023-02-25T11:47:39.111Z,99413.03
2023-02-25T11:52:46.494Z,99411.78
2023-02-25T11:58:15.301Z,99405.25
2023-02-25T12:03:39.621Z,99398.50
2023-02-25T12:09:25.568Z,99392.53
2023-02-25T12:14:59.130Z,99390.66
2023-02-25T12:20:06.392Z,99389.38
2023-02-25T12:25:49.676Z,99381.25
2023-02-25T12:31:23.348Z,99379.84
2023-02-25T12:37:00.295Z,99384.84
2023-02-25T12:42:21.152Z,99378.13
2023-02-25T12:47:22.479Z,99387.88
2023-02-25T12:52:47.861Z,99383.34
2023-02-25T12:58:19.889Z,99385.97
2023-02-25T13:03:34.132Z,99375.59
2023-02-25T13:08:41.196Z,99360.34
2023-02-25T13:13:57.919Z,99372.28
2023-02-25T13:19:36.427Z,99359.50
2023-02-25T13:24:44.593Z,99362.47
2023-02-25T13:30:05.455Z,99374.47
2023-02-25T13:35:32.236Z,99379.34
2023-02-25T13:40:48.837Z,99394.56
2023-02-25T14:02:22.426Z,99434.31
2023-02-25T14:07:29.784Z,99448.19
2023-02-25T14:13:09.864Z,99457.91
2023-02-25T14:18:21.758Z,99469.72
2023-02-25T14:23:53.071Z,99476.66
2023-02-25T14:29:11.861Z,99480.88
2023-02-25T14:34:46.737Z,99485.22
2023-02-25T14:40:05.480Z,99491.59
2023-02-25T14:45:29.135Z,99488.03
2023-02-25T14:50:40.787Z,99487.47
2023-02-25T14:56:19.945Z,99475.06
2023-02-25T15:01:55.754Z,99480.81
2023-02-25T15:07:28.579Z,99483.47
2023-02-25T17:38:07.235Z,99772.91
2023-02-25T17:43:24.074Z,99782.56
2023-02-25T17:48:29.732Z,99788.72
2023-02-25T17:54:15.537Z,99788.34
2023-02-25T17:59:36.440Z,99800.00
2023-02-25T18:04:41.115Z,99800.78
2023-02-25T18:09:42.458Z,99807.78
2023-02-25T18:14:46.057Z,99817.75
2023-02-25T18:19:48.061Z,99821.50
2023-02-25T18:24:58.887Z,99826.78
2023-02-25T18:30:19.191Z,99832.13
2023-02-25T18:35:21.843Z,99836.22
2023-02-25T18:40:27.934Z,99835.13
2023-02-25T18:45:31.005Z,99846.47
2023-02-25T18:50:33.204Z,99842.44
2023-02-25T18:55:34.551Z,99849.88
2023-02-25T19:00:36.014Z,99854.81
2023-02-25T19:05:37.405Z,99861.03
2023-02-25T19:10:38.982Z,99864.09
2023-02-25T19:15:40.586Z,99863.78
2023-02-25T19:20:43.903Z,99873.88
2023-02-25T19:25:47.774Z,99881.03
2023-02-25T19:30:49.189Z,99886.94
2023-02-25T19:35:50.577Z,99896.91
2023-02-25T19:40:51.999Z,99904.19
2023-02-25T19:45:54.353Z,99916.13
2023-02-25T19:50:55.791Z,99929.28
2023-02-25T19:55:57.355Z,99935.03
2023-02-25T20:01:07.166Z,99933.88
2023-02-25T20:06:13.235Z,99936.84
2023-02-25T20:11:14.860Z,99950.88
2023-02-25T20:16:16.245Z,99955.78
2023-02-25T20:21:18.807Z,99967.13
2023-02-25T20:26:22.989Z,99969.94
2023-02-25T20:31:26.169Z,99969.09
2023-02-25T20:36:38.028Z,99975.69
2023-02-25T20:41:42.741Z,99985.94
2023-02-25T20:46:44.648Z,99991.13
2023-02-25T20:51:47.401Z,99988.31
2023-02-25T20:56:49.923Z,100004.69
2023-02-25T21:01:51.340Z,100013.66
2023-02-25T21:06:52.878Z,100013.38
2023-02-25T21:11:54.322Z,100022.63
2023-02-25T21:16:56.916Z,100022.75
2023-02-25T21:21:58.328Z,100035.06
2023-02-25T21:27:01.327Z,100029.31
2023-02-25T21:32:02.723Z,100038.44
2023-02-25T21:37:04.370Z,100037.88
2023-02-25T21:42:05.737Z,100040.09
2023-02-25T21:47:07.120Z,100047.66
2023-02-25T21:52:08.480Z,100056.75
2023-02-25T21:57:09.964Z,100060.25
2023-02-25T22:02:11.331Z,100052.97
2023-02-25T22:07:12.713Z,100052.09
2023-02-25T22:12:14.140Z,100052.78
2023-02-25T22:17:15.594Z,100051.94
2023-02-25T22:22:16.925Z,100051.03
2023-02-25T22:27:18.303Z,100052.72
2023-02-25T22:32:20.334Z,100050.47
2023-02-25T22:37:21.766Z,100051.13
2023-02-25T22:42:23.623Z,100050.41
2023-02-25T22:47:25.269Z,100060.19
2023-02-25T22:52:26.658Z,100064.19
2023-02-25T22:57:28.019Z,100067.56
2023-02-25T23:02:29.402Z,100072.75
2023-02-25T23:07:30.739Z,100074.53
2023-02-25T23:12:32.089Z,100077.22
2023-02-25T23:17:33.408Z,100080.41
2023-02-25T23:22:35.133Z,100090.16
2023-02-25T23:27:37.097Z,100088.13
2023-02-25T23:32:40.960Z,100092.63
2023-02-25T23:37:42.635Z,100088.88
2023-02-25T23:42:44.156Z,100089.63
2023-02-25T23:47:45.498Z,100088.44
2023-02-25T23:52:46.904Z,100089.31
2023-02-25T23:57:48.470Z,100084.81
